PY-0018 weather

Estancia Lomas Airport
Rosario, San Pedro Department, Paraguay

Public forecast

Using degrees Celsius for public forecast. Weather courtesy of forecast.io.

METAR (pilot weather report)

Report is more than 6 hours old.

Closest report is San Pedro Airport, 32.2 nm (59.7 km) N. Retrieved 2018/12/03 21:00 UTC (9 days ago):

SGSP 032100Z 00000KT CAVOK 29/14 Q1006

TAF (pilot weather forecast)

Forecast is more than 12 hours old.

Closest forecast is Silvio Pettirossi International Airport, 42.5 nm (78.7 km) SSW. Retrieved 2018/12/08 06:00 UTC (4 days ago):

TAF SGAS 080345Z 0806/0906 17004KT CAVOK TX30/0819Z TN15/0809Z BECMG 0814/0817 14008KT 9999 SCT033 BECMG 0818/0821 CAVOK